sensor_id;sensor_type;location;lat;lon;timestamp;P1;durP1;ratioP1;P2;durP2;ratioP2
22111;SDS011;11222;50.872;4.312;2022-12-29T00:01:17;2.30;;;1.80;;
22111;SDS011;11222;50.872;4.312;2022-12-29T00:03:45;2.08;;;1.88;;
22111;SDS011;11222;50.872;4.312;2022-12-29T00:06:11;3.40;;;1.98;;
22111;SDS011;11222;50.872;4.312;2022-12-29T00:08:37;2.97;;;1.90;;
22111;SDS011;11222;50.872;4.312;2022-12-29T00:11:09;3.20;;;1.67;;
22111;SDS011;11222;50.872;4.312;2022-12-29T00:13:37;2.75;;;1.50;;
22111;SDS011;11222;50.872;4.312;2022-12-29T00:16:21;1.83;;;1.65;;
22111;SDS011;11222;50.872;4.312;2022-12-29T00:18:47;3.17;;;1.80;;
22111;SDS011;11222;50.872;4.312;2022-12-29T00:21:14;2.47;;;1.60;;
22111;SDS011;11222;50.872;4.312;2022-12-29T00:23:59;2.28;;;1.70;;
22111;SDS011;11222;50.872;4.312;2022-12-29T00:26:45;4.88;;;2.13;;
22111;SDS011;11222;50.872;4.312;2022-12-29T00:29:30;2.53;;;1.50;;
22111;SDS011;11222;50.872;4.312;2022-12-29T00:32:14;2.72;;;1.52;;
22111;SDS011;11222;50.872;4.312;2022-12-29T00:34:58;2.75;;;1.60;;
22111;SDS011;11222;50.872;4.312;2022-12-29T00:40:18;2.00;;;1.33;;
22111;SDS011;11222;50.872;4.312;2022-12-29T00:43:02;4.93;;;1.90;;
22111;SDS011;11222;50.872;4.312;2022-12-29T00:45:46;2.75;;;1.60;;
22111;SDS011;11222;50.872;4.312;2022-12-29T00:48:12;7.13;;;2.17;;
22111;SDS011;11222;50.872;4.312;2022-12-29T00:50:37;2.95;;;1.67;;
22111;SDS011;11222;50.872;4.312;2022-12-29T00:53:03;3.80;;;1.60;;
22111;SDS011;11222;50.872;4.312;2022-12-29T00:55:29;2.95;;;1.50;;
22111;SDS011;11222;50.872;4.312;2022-12-29T00:57:54;6.53;;;1.80;;
22111;SDS011;11222;50.872;4.312;2022-12-29T01:00:20;5.30;;;1.60;;
22111;SDS011;11222;50.872;4.312;2022-12-29T01:02:46;3.88;;;1.73;;
22111;SDS011;11222;50.872;4.312;2022-12-29T01:05:11;5.55;;;1.60;;
22111;SDS011;11222;50.872;4.312;2022-12-29T01:07:37;3.90;;;1.52;;
22111;SDS011;11222;50.872;4.312;2022-12-29T01:10:03;3.10;;;1.35;;
22111;SDS011;11222;50.872;4.312;2022-12-29T01:12:35;3.30;;;1.70;;
22111;SDS011;11222;50.872;4.312;2022-12-29T01:15:07;3.20;;;1.35;;
22111;SDS011;11222;50.872;4.312;2022-12-29T01:17:34;3.22;;;1.52;;
22111;SDS011;11222;50.872;4.312;2022-12-29T01:20:01;3.38;;;1.40;;
22111;SDS011;11222;50.872;4.312;2022-12-29T01:22:28;4.63;;;1.70;;
22111;SDS011;11222;50.872;4.312;2022-12-29T01:24:53;3.35;;;1.75;;
22111;SDS011;11222;50.872;4.312;2022-12-29T01:27:19;4.00;;;1.50;;
22111;SDS011;11222;50.872;4.312;2022-12-29T01:29:45;5.38;;;1.52;;
22111;SDS011;11222;50.872;4.312;2022-12-29T01:32:10;3.10;;;1.35;;
22111;SDS011;11222;50.872;4.312;2022-12-29T01:34:36;5.90;;;1.60;;
22111;SDS011;11222;50.872;4.312;2022-12-29T01:37:02;4.28;;;1.42;;
22111;SDS011;11222;50.872;4.312;2022-12-29T01:39:27;4.65;;;1.83;;
22111;SDS011;11222;50.872;4.312;2022-12-29T01:41:53;3.72;;;1.63;;
22111;SDS011;11222;50.872;4.312;2022-12-29T01:47:33;5.18;;;1.63;;
22111;SDS011;11222;50.872;4.312;2022-12-29T01:50:10;4.97;;;1.83;;
22111;SDS011;11222;50.872;4.312;2022-12-29T01:52:42;3.58;;;1.67;;
22111;SDS011;11222;50.872;4.312;2022-12-29T01:55:15;4.45;;;1.60;;
22111;SDS011;11222;50.872;4.312;2022-12-29T01:57:42;3.40;;;1.25;;
22111;SDS011;11222;50.872;4.312;2022-12-29T02:00:11;3.30;;;1.67;;
22111;SDS011;11222;50.872;4.312;2022-12-29T02:02:39;1.98;;;1.38;;
22111;SDS011;11222;50.872;4.312;2022-12-29T02:05:19;3.20;;;1.42;;
22111;SDS011;11222;50.872;4.312;2022-12-29T02:07:48;1.85;;;1.33;;
22111;SDS011;11222;50.872;4.312;2022-12-29T02:10:16;3.88;;;1.50;;
22111;SDS011;11222;50.872;4.312;2022-12-29T02:12:44;2.55;;;1.10;;
22111;SDS011;11222;50.872;4.312;2022-12-29T02:15:11;2.95;;;1.33;;
22111;SDS011;11222;50.872;4.312;2022-12-29T02:17:43;1.92;;;1.30;;
22111;SDS011;11222;50.872;4.312;2022-12-29T02:26:30;5.82;;;1.25;;
22111;SDS011;11222;50.872;4.312;2022-12-29T02:42:35;2.28;;;1.13;;
22111;SDS011;11222;50.872;4.312;2022-12-29T02:45:05;4.50;;;1.10;;
22111;SDS011;11222;50.872;4.312;2022-12-29T02:48:10;2.30;;;0.95;;
22111;SDS011;11222;50.872;4.312;2022-12-29T02:51:02;3.25;;;1.20;;
22111;SDS011;11222;50.872;4.312;2022-12-29T02:53:34;2.80;;;1.00;;
22111;SDS011;11222;50.872;4.312;2022-12-29T02:56:20;3.05;;;1.00;;
22111;SDS011;11222;50.872;4.312;2022-12-29T02:58:46;1.67;;;1.10;;
22111;SDS011;11222;50.872;4.312;2022-12-29T03:06:33;16.55;;;1.50;;
22111;SDS011;11222;50.872;4.312;2022-12-29T03:12:02;4.53;;;1.35;;
22111;SDS011;11222;50.872;4.312;2022-12-29T03:14:44;5.35;;;1.30;;
22111;SDS011;11222;50.872;4.312;2022-12-29T03:20:08;8.95;;;2.10;;
22111;SDS011;11222;50.872;4.312;2022-12-29T03:22:41;5.65;;;1.85;;
22111;SDS011;11222;50.872;4.312;2022-12-29T03:25:14;4.78;;;1.30;;
22111;SDS011;11222;50.872;4.312;2022-12-29T03:27:48;4.53;;;1.58;;
22111;SDS011;11222;50.872;4.312;2022-12-29T03:30:18;5.25;;;1.40;;
22111;SDS011;11222;50.872;4.312;2022-12-29T03:32:46;3.17;;;1.30;;
22111;SDS011;11222;50.872;4.312;2022-12-29T03:35:17;3.10;;;1.25;;
22111;SDS011;11222;50.872;4.312;2022-12-29T03:40:36;3.42;;;1.10;;
22111;SDS011;11222;50.872;4.312;2022-12-29T03:43:05;2.15;;;1.13;;
22111;SDS011;11222;50.872;4.312;2022-12-29T03:45:31;2.60;;;1.08;;
22111;SDS011;11222;50.872;4.312;2022-12-29T03:47:57;2.42;;;1.00;;
22111;SDS011;11222;50.872;4.312;2022-12-29T03:50:22;2.80;;;1.02;;
22111;SDS011;11222;50.872;4.312;2022-12-29T03:52:48;2.38;;;1.27;;
22111;SDS011;11222;50.872;4.312;2022-12-29T03:55:14;4.72;;;1.45;;
22111;SDS011;11222;50.872;4.312;2022-12-29T03:57:40;5.07;;;1.50;;
22111;SDS011;11222;50.872;4.312;2022-12-29T04:00:06;5.22;;;1.95;;
22111;SDS011;11222;50.872;4.312;2022-12-29T04:02:32;2.90;;;1.35;;
22111;SDS011;11222;50.872;4.312;2022-12-29T04:04:58;2.95;;;1.42;;
22111;SDS011;11222;50.872;4.312;2022-12-29T04:07:23;3.28;;;1.23;;
22111;SDS011;11222;50.872;4.312;2022-12-29T04:09:49;2.60;;;1.40;;
22111;SDS011;11222;50.872;4.312;2022-12-29T04:12:16;6.47;;;1.60;;
22111;SDS011;11222;50.872;4.312;2022-12-29T04:14:41;3.13;;;1.20;;
22111;SDS011;11222;50.872;4.312;2022-12-29T04:17:07;1.73;;;1.10;;
22111;SDS011;11222;50.872;4.312;2022-12-29T04:19:33;3.78;;;1.30;;
22111;SDS011;11222;50.872;4.312;2022-12-29T04:21:58;5.85;;;1.40;;
22111;SDS011;11222;50.872;4.312;2022-12-29T04:24:24;5.13;;;1.30;;
22111;SDS011;11222;50.872;4.312;2022-12-29T04:26:50;3.45;;;1.30;;
22111;SDS011;11222;50.872;4.312;2022-12-29T04:29:16;8.63;;;1.42;;
22111;SDS011;11222;50.872;4.312;2022-12-29T04:31:41;5.72;;;1.35;;
22111;SDS011;11222;50.872;4.312;2022-12-29T04:34:07;5.10;;;1.40;;
22111;SDS011;11222;50.872;4.312;2022-12-29T04:36:33;6.70;;;1.55;;
22111;SDS011;11222;50.872;4.312;2022-12-29T04:38:58;4.65;;;1.27;;
22111;SDS011;11222;50.872;4.312;2022-12-29T04:41:24;4.80;;;1.30;;
22111;SDS011;11222;50.872;4.312;2022-12-29T04:43:50;4.35;;;1.30;;
22111;SDS011;11222;50.872;4.312;2022-12-29T04:46:16;4.47;;;1.33;;
22111;SDS011;11222;50.872;4.312;2022-12-29T04:48:42;2.95;;;1.42;;
22111;SDS011;11222;50.872;4.312;2022-12-29T04:51:07;6.65;;;1.30;;
22111;SDS011;11222;50.872;4.312;2022-12-29T04:53:33;4.25;;;1.70;;
22111;SDS011;11222;50.872;4.312;2022-12-29T04:55:59;5.60;;;1.73;;
22111;SDS011;11222;50.872;4.312;2022-12-29T04:58:24;3.88;;;1.65;;
22111;SDS011;11222;50.872;4.312;2022-12-29T05:00:50;6.28;;;1.92;;
22111;SDS011;11222;50.872;4.312;2022-12-29T05:03:17;3.85;;;1.80;;
22111;SDS011;11222;50.872;4.312;2022-12-29T05:05:42;8.60;;;2.00;;
22111;SDS011;11222;50.872;4.312;2022-12-29T05:08:08;8.77;;;2.30;;
22111;SDS011;11222;50.872;4.312;2022-12-29T05:10:34;8.85;;;2.58;;
22111;SDS011;11222;50.872;4.312;2022-12-29T05:12:59;6.15;;;2.38;;
22111;SDS011;11222;50.872;4.312;2022-12-29T05:15:26;6.05;;;1.80;;
22111;SDS011;11222;50.872;4.312;2022-12-29T05:17:51;5.63;;;2.50;;
22111;SDS011;11222;50.872;4.312;2022-12-29T05:20:17;7.57;;;2.40;;
22111;SDS011;11222;50.872;4.312;2022-12-29T05:22:43;4.80;;;2.17;;
22111;SDS011;11222;50.872;4.312;2022-12-29T05:25:09;6.53;;;2.67;;
22111;SDS011;11222;50.872;4.312;2022-12-29T05:27:34;9.20;;;2.38;;
22111;SDS011;11222;50.872;4.312;2022-12-29T05:30:00;7.25;;;2.25;;
22111;SDS011;11222;50.872;4.312;2022-12-29T05:32:26;5.78;;;2.00;;
22111;SDS011;11222;50.872;4.312;2022-12-29T05:34:52;6.20;;;2.10;;
22111;SDS011;11222;50.872;4.312;2022-12-29T05:37:18;5.82;;;1.75;;
22111;SDS011;11222;50.872;4.312;2022-12-29T05:39:43;9.13;;;2.30;;
22111;SDS011;11222;50.872;4.312;2022-12-29T05:42:09;6.95;;;2.03;;
22111;SDS011;11222;50.872;4.312;2022-12-29T05:44:35;7.53;;;1.85;;
22111;SDS011;11222;50.872;4.312;2022-12-29T05:47:01;10.10;;;1.90;;
22111;SDS011;11222;50.872;4.312;2022-12-29T05:49:26;13.50;;;2.08;;
22111;SDS011;11222;50.872;4.312;2022-12-29T05:51:52;12.70;;;2.72;;
22111;SDS011;11222;50.872;4.312;2022-12-29T05:54:18;4.97;;;2.08;;
22111;SDS011;11222;50.872;4.312;2022-12-29T05:56:43;9.60;;;2.28;;
22111;SDS011;11222;50.872;4.312;2022-12-29T05:59:09;6.75;;;1.92;;
22111;SDS011;11222;50.872;4.312;2022-12-29T06:01:35;13.48;;;2.00;;
22111;SDS011;11222;50.872;4.312;2022-12-29T06:04:13;8.00;;;2.00;;
22111;SDS011;11222;50.872;4.312;2022-12-29T06:06:39;7.88;;;1.83;;
22111;SDS011;11222;50.872;4.312;2022-12-29T06:09:05;7.43;;;2.08;;
22111;SDS011;11222;50.872;4.312;2022-12-29T06:11:31;13.80;;;2.30;;
22111;SDS011;11222;50.872;4.312;2022-12-29T06:13:56;9.65;;;2.00;;
22111;SDS011;11222;50.872;4.312;2022-12-29T06:16:22;9.63;;;2.08;;
22111;SDS011;11222;50.872;4.312;2022-12-29T06:18:48;7.35;;;1.80;;
22111;SDS011;11222;50.872;4.312;2022-12-29T06:21:13;6.38;;;2.08;;
22111;SDS011;11222;50.872;4.312;2022-12-29T06:23:39;8.55;;;1.60;;
22111;SDS011;11222;50.872;4.312;2022-12-29T06:26:05;7.95;;;2.08;;
22111;SDS011;11222;50.872;4.312;2022-12-29T06:28:30;12.63;;;2.22;;
22111;SDS011;11222;50.872;4.312;2022-12-29T06:30:56;7.63;;;1.98;;
22111;SDS011;11222;50.872;4.312;2022-12-29T06:33:22;7.50;;;1.92;;
22111;SDS011;11222;50.872;4.312;2022-12-29T06:35:48;10.13;;;1.95;;
22111;SDS011;11222;50.872;4.312;2022-12-29T06:38:13;8.13;;;2.15;;
22111;SDS011;11222;50.872;4.312;2022-12-29T06:40:39;8.38;;;2.05;;
22111;SDS011;11222;50.872;4.312;2022-12-29T06:43:06;5.38;;;1.92;;
22111;SDS011;11222;50.872;4.312;2022-12-29T06:45:32;9.32;;;2.20;;
22111;SDS011;11222;50.872;4.312;2022-12-29T06:47:58;10.27;;;2.13;;
22111;SDS011;11222;50.872;4.312;2022-12-29T06:50:23;11.35;;;2.40;;
22111;SDS011;11222;50.872;4.312;2022-12-29T06:52:49;8.90;;;2.30;;
22111;SDS011;11222;50.872;4.312;2022-12-29T06:55:15;9.70;;;2.08;;
22111;SDS011;11222;50.872;4.312;2022-12-29T06:57:41;10.25;;;2.10;;
22111;SDS011;11222;50.872;4.312;2022-12-29T07:00:07;6.03;;;2.00;;
22111;SDS011;11222;50.872;4.312;2022-12-29T07:02:33;9.27;;;2.47;;
22111;SDS011;11222;50.872;4.312;2022-12-29T07:04:59;5.50;;;1.75;;
22111;SDS011;11222;50.872;4.312;2022-12-29T07:07:24;7.30;;;2.47;;
22111;SDS011;11222;50.872;4.312;2022-12-29T07:09:50;8.82;;;2.20;;
22111;SDS011;11222;50.872;4.312;2022-12-29T07:12:16;10.48;;;2.90;;
22111;SDS011;11222;50.872;4.312;2022-12-29T07:14:41;6.72;;;2.40;;
22111;SDS011;11222;50.872;4.312;2022-12-29T07:17:07;6.78;;;2.42;;
22111;SDS011;11222;50.872;4.312;2022-12-29T07:19:33;6.30;;;1.77;;
22111;SDS011;11222;50.872;4.312;2022-12-29T07:21:59;7.03;;;2.25;;
22111;SDS011;11222;50.872;4.312;2022-12-29T07:24:25;7.80;;;1.88;;
22111;SDS011;11222;50.872;4.312;2022-12-29T07:26:51;8.88;;;2.38;;
22111;SDS011;11222;50.872;4.312;2022-12-29T07:29:17;11.02;;;2.42;;
22111;SDS011;11222;50.872;4.312;2022-12-29T07:31:43;10.93;;;2.10;;
22111;SDS011;11222;50.872;4.312;2022-12-29T07:34:09;12.35;;;1.95;;
22111;SDS011;11222;50.872;4.312;2022-12-29T07:36:35;7.60;;;2.38;;
22111;SDS011;11222;50.872;4.312;2022-12-29T07:39:01;7.05;;;2.00;;
22111;SDS011;11222;50.872;4.312;2022-12-29T07:41:27;10.38;;;2.10;;
22111;SDS011;11222;50.872;4.312;2022-12-29T07:43:53;6.85;;;1.85;;
22111;SDS011;11222;50.872;4.312;2022-12-29T07:46:19;6.47;;;2.10;;
22111;SDS011;11222;50.872;4.312;2022-12-29T07:48:44;13.25;;;2.45;;
22111;SDS011;11222;50.872;4.312;2022-12-29T07:51:10;12.82;;;2.38;;
22111;SDS011;11222;50.872;4.312;2022-12-29T07:53:36;7.97;;;2.40;;
22111;SDS011;11222;50.872;4.312;2022-12-29T07:56:02;11.15;;;2.30;;
22111;SDS011;11222;50.872;4.312;2022-12-29T07:58:28;7.88;;;2.22;;
22111;SDS011;11222;50.872;4.312;2022-12-29T08:00:54;9.68;;;2.58;;
22111;SDS011;11222;50.872;4.312;2022-12-29T08:03:20;8.18;;;2.33;;
22111;SDS011;11222;50.872;4.312;2022-12-29T08:05:46;9.70;;;2.22;;
22111;SDS011;11222;50.872;4.312;2022-12-29T08:08:12;8.52;;;2.45;;
22111;SDS011;11222;50.872;4.312;2022-12-29T08:10:37;9.98;;;2.88;;
22111;SDS011;11222;50.872;4.312;2022-12-29T08:13:03;11.52;;;2.45;;
22111;SDS011;11222;50.872;4.312;2022-12-29T08:15:29;9.48;;;2.60;;
22111;SDS011;11222;50.872;4.312;2022-12-29T08:17:54;9.60;;;2.40;;
22111;SDS011;11222;50.872;4.312;2022-12-29T08:20:20;6.25;;;2.20;;
22111;SDS011;11222;50.872;4.312;2022-12-29T08:22:46;7.10;;;2.10;;
22111;SDS011;11222;50.872;4.312;2022-12-29T08:25:11;9.70;;;2.50;;
22111;SDS011;11222;50.872;4.312;2022-12-29T08:27:37;10.20;;;2.65;;
22111;SDS011;11222;50.872;4.312;2022-12-29T08:30:03;11.52;;;2.17;;
22111;SDS011;11222;50.872;4.312;2022-12-29T08:32:29;6.88;;;2.67;;
22111;SDS011;11222;50.872;4.312;2022-12-29T08:34:55;12.10;;;2.58;;
22111;SDS011;11222;50.872;4.312;2022-12-29T08:37:21;9.32;;;2.00;;
22111;SDS011;11222;50.872;4.312;2022-12-29T08:39:47;9.63;;;2.40;;
22111;SDS011;11222;50.872;4.312;2022-12-29T08:42:13;13.00;;;2.55;;
22111;SDS011;11222;50.872;4.312;2022-12-29T08:44:38;9.95;;;2.20;;
22111;SDS011;11222;50.872;4.312;2022-12-29T08:47:05;11.57;;;2.13;;
22111;SDS011;11222;50.872;4.312;2022-12-29T08:49:31;9.35;;;2.65;;
22111;SDS011;11222;50.872;4.312;2022-12-29T08:51:58;8.30;;;2.03;;
22111;SDS011;11222;50.872;4.312;2022-12-29T08:54:24;11.57;;;3.15;;
22111;SDS011;11222;50.872;4.312;2022-12-29T08:56:50;9.13;;;2.13;;
22111;SDS011;11222;50.872;4.312;2022-12-29T08:59:15;14.50;;;2.90;;
22111;SDS011;11222;50.872;4.312;2022-12-29T09:01:41;10.30;;;2.47;;
22111;SDS011;11222;50.872;4.312;2022-12-29T09:04:07;7.93;;;2.05;;
22111;SDS011;11222;50.872;4.312;2022-12-29T09:06:33;9.45;;;2.60;;
22111;SDS011;11222;50.872;4.312;2022-12-29T09:08:59;11.02;;;2.28;;
22111;SDS011;11222;50.872;4.312;2022-12-29T09:11:25;9.00;;;2.47;;
22111;SDS011;11222;50.872;4.312;2022-12-29T09:13:52;12.52;;;2.60;;
22111;SDS011;11222;50.872;4.312;2022-12-29T09:16:19;10.77;;;2.65;;
22111;SDS011;11222;50.872;4.312;2022-12-29T09:18:46;10.93;;;2.53;;
22111;SDS011;11222;50.872;4.312;2022-12-29T09:21:12;10.32;;;2.70;;
22111;SDS011;11222;50.872;4.312;2022-12-29T09:23:39;14.82;;;2.83;;
22111;SDS011;11222;50.872;4.312;2022-12-29T09:26:05;11.18;;;2.55;;
22111;SDS011;11222;50.872;4.312;2022-12-29T09:28:32;9.02;;;2.60;;
22111;SDS011;11222;50.872;4.312;2022-12-29T09:30:58;14.55;;;3.25;;
22111;SDS011;11222;50.872;4.312;2022-12-29T09:33:24;8.80;;;2.40;;
22111;SDS011;11222;50.872;4.312;2022-12-29T09:35:51;9.10;;;2.22;;
22111;SDS011;11222;50.872;4.312;2022-12-29T09:38:18;10.77;;;2.90;;
22111;SDS011;11222;50.872;4.312;2022-12-29T09:40:46;9.98;;;2.85;;
22111;SDS011;11222;50.872;4.312;2022-12-29T09:45:59;9.82;;;2.38;;
22111;SDS011;11222;50.872;4.312;2022-12-29T09:48:37;9.50;;;2.33;;
22111;SDS011;11222;50.872;4.312;2022-12-29T09:51:09;13.25;;;2.97;;
22111;SDS011;11222;50.872;4.312;2022-12-29T09:53:42;13.68;;;2.55;;
22111;SDS011;11222;50.872;4.312;2022-12-29T09:56:18;13.95;;;3.15;;
22111;SDS011;11222;50.872;4.312;2022-12-29T10:04:14;11.57;;;2.90;;
22111;SDS011;11222;50.872;4.312;2022-12-29T10:20:55;8.27;;;2.25;;
22111;SDS011;11222;50.872;4.312;2022-12-29T10:23:48;12.40;;;3.00;;
22111;SDS011;11222;50.872;4.312;2022-12-29T10:26:17;12.55;;;2.80;;
22111;SDS011;11222;50.872;4.312;2022-12-29T10:31:25;15.25;;;3.17;;
22111;SDS011;11222;50.872;4.312;2022-12-29T10:33:57;11.15;;;2.92;;
22111;SDS011;11222;50.872;4.312;2022-12-29T10:36:35;16.48;;;2.95;;
22111;SDS011;11222;50.872;4.312;2022-12-29T10:44:55;18.35;;;3.38;;
22111;SDS011;11222;50.872;4.312;2022-12-29T10:47:26;10.88;;;2.75;;
22111;SDS011;11222;50.872;4.312;2022-12-29T10:49:56;12.87;;;2.53;;
22111;SDS011;11222;50.872;4.312;2022-12-29T10:52:23;13.77;;;2.72;;
22111;SDS011;11222;50.872;4.312;2022-12-29T10:54:53;9.60;;;2.72;;
22111;SDS011;11222;50.872;4.312;2022-12-29T10:57:24;6.93;;;2.28;;
22111;SDS011;11222;50.872;4.312;2022-12-29T10:59:51;6.18;;;2.65;;
22111;SDS011;11222;50.872;4.312;2022-12-29T11:02:22;9.38;;;2.85;;
22111;SDS011;11222;50.872;4.312;2022-12-29T11:05:02;12.25;;;2.92;;
22111;SDS011;11222;50.872;4.312;2022-12-29T11:07:35;9.15;;;2.67;;
22111;SDS011;11222;50.872;4.312;2022-12-29T11:10:28;10.20;;;2.58;;
22111;SDS011;11222;50.872;4.312;2022-12-29T11:13:18;7.13;;;2.45;;
22111;SDS011;11222;50.872;4.312;2022-12-29T11:15:50;12.68;;;2.70;;
22111;SDS011;11222;50.872;4.312;2022-12-29T11:18:20;8.85;;;3.05;;
22111;SDS011;11222;50.872;4.312;2022-12-29T11:23:37;11.63;;;2.50;;
22111;SDS011;11222;50.872;4.312;2022-12-29T11:26:21;9.32;;;2.88;;
22111;SDS011;11222;50.872;4.312;2022-12-29T11:31:45;10.15;;;2.78;;
22111;SDS011;11222;50.872;4.312;2022-12-29T11:34:20;11.02;;;2.55;;
22111;SDS011;11222;50.872;4.312;2022-12-29T11:36:58;10.90;;;2.80;;
22111;SDS011;11222;50.872;4.312;2022-12-29T11:42:13;9.23;;;2.80;;
22111;SDS011;11222;50.872;4.312;2022-12-29T11:44:42;12.07;;;3.28;;
22111;SDS011;11222;50.872;4.312;2022-12-29T11:47:12;9.52;;;2.25;;
22111;SDS011;11222;50.872;4.312;2022-12-29T11:49:50;13.68;;;3.70;;
22111;SDS011;11222;50.872;4.312;2022-12-29T11:52:22;13.75;;;2.55;;
22111;SDS011;11222;50.872;4.312;2022-12-29T11:54:50;17.35;;;2.70;;
22111;SDS011;11222;50.872;4.312;2022-12-29T11:57:18;11.98;;;3.10;;
22111;SDS011;11222;50.872;4.312;2022-12-29T11:59:55;15.98;;;3.63;;
22111;SDS011;11222;50.872;4.312;2022-12-29T12:07:50;10.35;;;2.70;;
22111;SDS011;11222;50.872;4.312;2022-12-29T12:10:44;8.18;;;2.50;;
22111;SDS011;11222;50.872;4.312;2022-12-29T12:16:06;10.82;;;2.78;;
22111;SDS011;11222;50.872;4.312;2022-12-29T12:18:52;13.32;;;2.78;;
22111;SDS011;11222;50.872;4.312;2022-12-29T12:21:30;10.27;;;2.67;;
22111;SDS011;11222;50.872;4.312;2022-12-29T12:26:55;13.32;;;2.67;;
22111;SDS011;11222;50.872;4.312;2022-12-29T12:29:41;12.85;;;3.53;;
22111;SDS011;11222;50.872;4.312;2022-12-29T12:32:17;8.48;;;2.08;;
22111;SDS011;11222;50.872;4.312;2022-12-29T12:34:51;10.32;;;2.45;;
22111;SDS011;11222;50.872;4.312;2022-12-29T12:51:52;9.55;;;2.35;;
22111;SDS011;11222;50.872;4.312;2022-12-29T12:56:43;10.43;;;2.88;;
22111;SDS011;11222;50.872;4.312;2022-12-29T12:59:32;10.43;;;2.45;;
22111;SDS011;11222;50.872;4.312;2022-12-29T13:12:46;9.15;;;2.35;;
22111;SDS011;11222;50.872;4.312;2022-12-29T13:18:23;13.88;;;2.45;;
22111;SDS011;11222;50.872;4.312;2022-12-29T13:21:12;5.55;;;1.90;;
22111;SDS011;11222;50.872;4.312;2022-12-29T13:26:33;10.10;;;2.13;;
22111;SDS011;11222;50.872;4.312;2022-12-29T13:29:15;8.27;;;2.15;;
22111;SDS011;11222;50.872;4.312;2022-12-29T13:36:51;8.90;;;2.75;;
22111;SDS011;11222;50.872;4.312;2022-12-29T13:39:40;8.82;;;2.70;;
22111;SDS011;11222;50.872;4.312;2022-12-29T13:42:10;10.05;;;2.53;;
22111;SDS011;11222;50.872;4.312;2022-12-29T13:49:56;17.60;;;3.75;;
22111;SDS011;11222;50.872;4.312;2022-12-29T13:52:36;11.40;;;2.97;;
22111;SDS011;11222;50.872;4.312;2022-12-29T13:57:50;16.73;;;3.60;;
22111;SDS011;11222;50.872;4.312;2022-12-29T14:00:22;15.23;;;3.30;;
22111;SDS011;11222;50.872;4.312;2022-12-29T14:03:01;12.88;;;3.63;;
22111;SDS011;11222;50.872;4.312;2022-12-29T14:06:02;14.20;;;3.72;;
22111;SDS011;11222;50.872;4.312;2022-12-29T14:08:41;13.15;;;4.55;;
22111;SDS011;11222;50.872;4.312;2022-12-29T14:11:11;13.32;;;3.38;;
22111;SDS011;11222;50.872;4.312;2022-12-29T14:13:41;12.10;;;3.15;;
22111;SDS011;11222;50.872;4.312;2022-12-29T14:16:21;14.55;;;3.65;;
22111;SDS011;11222;50.872;4.312;2022-12-29T14:18:53;18.45;;;4.13;;
22111;SDS011;11222;50.872;4.312;2022-12-29T14:21:22;17.25;;;3.30;;
22111;SDS011;11222;50.872;4.312;2022-12-29T14:23:57;12.05;;;3.00;;
22111;SDS011;11222;50.872;4.312;2022-12-29T14:26:46;13.43;;;3.20;;
22111;SDS011;11222;50.872;4.312;2022-12-29T14:31:50;10.50;;;2.47;;
22111;SDS011;11222;50.872;4.312;2022-12-29T14:39:32;5.40;;;1.50;;
22111;SDS011;11222;50.872;4.312;2022-12-29T14:42:05;6.88;;;1.83;;
22111;SDS011;11222;50.872;4.312;2022-12-29T14:44:45;7.05;;;2.15;;
22111;SDS011;11222;50.872;4.312;2022-12-29T14:47:18;5.65;;;2.00;;
22111;SDS011;11222;50.872;4.312;2022-12-29T14:49:52;8.13;;;1.80;;
22111;SDS011;11222;50.872;4.312;2022-12-29T14:52:20;4.57;;;1.80;;
22111;SDS011;11222;50.872;4.312;2022-12-29T14:54:49;7.47;;;2.00;;
22111;SDS011;11222;50.872;4.312;2022-12-29T14:57:41;7.35;;;1.67;;
22111;SDS011;11222;50.872;4.312;2022-12-29T15:00:23;5.57;;;1.80;;
22111;SDS011;11222;50.872;4.312;2022-12-29T15:03:00;6.72;;;2.00;;
22111;SDS011;11222;50.872;4.312;2022-12-29T15:05:51;5.35;;;1.77;;
22111;SDS011;11222;50.872;4.312;2022-12-29T15:08:18;6.28;;;2.00;;
22111;SDS011;11222;50.872;4.312;2022-12-29T15:11:00;6.90;;;1.73;;
22111;SDS011;11222;50.872;4.312;2022-12-29T15:13:34;8.98;;;2.03;;
22111;SDS011;11222;50.872;4.312;2022-12-29T15:16:02;7.90;;;2.22;;
22111;SDS011;11222;50.872;4.312;2022-12-29T15:18:29;10.32;;;2.42;;
22111;SDS011;11222;50.872;4.312;2022-12-29T15:20:57;5.47;;;1.88;;
22111;SDS011;11222;50.872;4.312;2022-12-29T15:23:29;5.63;;;1.80;;
22111;SDS011;11222;50.872;4.312;2022-12-29T15:26:04;5.82;;;2.00;;
22111;SDS011;11222;50.872;4.312;2022-12-29T15:28:43;6.90;;;2.67;;
22111;SDS011;11222;50.872;4.312;2022-12-29T15:33:37;9.98;;;2.25;;
22111;SDS011;11222;50.872;4.312;2022-12-29T15:36:10;6.95;;;2.22;;
22111;SDS011;11222;50.872;4.312;2022-12-29T15:38:38;9.18;;;3.00;;
22111;SDS011;11222;50.872;4.312;2022-12-29T15:41:05;7.60;;;2.58;;
22111;SDS011;11222;50.872;4.312;2022-12-29T15:43:53;9.57;;;2.60;;
22111;SDS011;11222;50.872;4.312;2022-12-29T15:46:35;11.32;;;2.50;;
22111;SDS011;11222;50.872;4.312;2022-12-29T15:49:04;8.13;;;2.67;;
22111;SDS011;11222;50.872;4.312;2022-12-29T15:51:36;8.48;;;2.65;;
22111;SDS011;11222;50.872;4.312;2022-12-29T15:54:04;10.90;;;3.08;;
22111;SDS011;11222;50.872;4.312;2022-12-29T15:56:37;10.70;;;2.83;;
22111;SDS011;11222;50.872;4.312;2022-12-29T15:59:03;10.93;;;2.88;;
22111;SDS011;11222;50.872;4.312;2022-12-29T16:01:32;11.10;;;3.60;;
22111;SDS011;11222;50.872;4.312;2022-12-29T16:04:01;11.02;;;2.67;;
22111;SDS011;11222;50.872;4.312;2022-12-29T16:06:37;8.98;;;3.00;;
22111;SDS011;11222;50.872;4.312;2022-12-29T16:09:15;10.80;;;3.45;;
22111;SDS011;11222;50.872;4.312;2022-12-29T16:14:46;12.93;;;3.63;;
22111;SDS011;11222;50.872;4.312;2022-12-29T16:17:20;13.52;;;3.35;;
22111;SDS011;11222;50.872;4.312;2022-12-29T16:19:59;8.90;;;3.63;;
22111;SDS011;11222;50.872;4.312;2022-12-29T16:22:34;11.02;;;3.83;;
22111;SDS011;11222;50.872;4.312;2022-12-29T16:25:06;10.68;;;3.65;;
22111;SDS011;11222;50.872;4.312;2022-12-29T16:27:48;12.75;;;4.45;;
22111;SDS011;11222;50.872;4.312;2022-12-29T16:30:17;13.55;;;4.53;;
22111;SDS011;11222;50.872;4.312;2022-12-29T16:32:47;18.55;;;4.32;;
22111;SDS011;11222;50.872;4.312;2022-12-29T16:35:22;12.85;;;4.47;;
22111;SDS011;11222;50.872;4.312;2022-12-29T16:40:54;20.30;;;5.32;;
22111;SDS011;11222;50.872;4.312;2022-12-29T16:43:27;12.85;;;4.35;;
22111;SDS011;11222;50.872;4.312;2022-12-29T16:50:51;15.48;;;4.53;;
22111;SDS011;11222;50.872;4.312;2022-12-29T16:53:55;16.92;;;4.47;;
22111;SDS011;11222;50.872;4.312;2022-12-29T16:56:22;17.40;;;4.78;;
22111;SDS011;11222;50.872;4.312;2022-12-29T16:58:51;22.55;;;4.38;;
22111;SDS011;11222;50.872;4.312;2022-12-29T17:01:24;17.48;;;3.90;;
22111;SDS011;11222;50.872;4.312;2022-12-29T17:03:51;18.05;;;4.10;;
22111;SDS011;11222;50.872;4.312;2022-12-29T17:06:19;22.75;;;4.28;;
22111;SDS011;11222;50.872;4.312;2022-12-29T17:08:46;19.67;;;3.83;;
22111;SDS011;11222;50.872;4.312;2022-12-29T17:11:23;18.42;;;4.30;;
22111;SDS011;11222;50.872;4.312;2022-12-29T17:14:19;16.73;;;3.92;;
22111;SDS011;11222;50.872;4.312;2022-12-29T17:16:56;17.65;;;5.30;;
22111;SDS011;11222;50.872;4.312;2022-12-29T17:19:34;16.48;;;4.85;;
22111;SDS011;11222;50.872;4.312;2022-12-29T17:22:02;18.55;;;6.45;;
22111;SDS011;11222;50.872;4.312;2022-12-29T17:24:33;15.68;;;4.60;;
22111;SDS011;11222;50.872;4.312;2022-12-29T17:27:00;21.10;;;5.47;;
22111;SDS011;11222;50.872;4.312;2022-12-29T17:29:31;16.38;;;4.50;;
22111;SDS011;11222;50.872;4.312;2022-12-29T17:32:01;16.00;;;4.03;;
22111;SDS011;11222;50.872;4.312;2022-12-29T17:34:28;16.35;;;4.07;;
22111;SDS011;11222;50.872;4.312;2022-12-29T17:36:54;18.25;;;4.93;;
22111;SDS011;11222;50.872;4.312;2022-12-29T17:39:20;13.35;;;3.85;;